CDT,Max TemperatureF,Mean TemperatureF,Min TemperatureF,Max Dew PointF,MeanDew PointF,Min DewpointF,Max Humidity, Mean Humidity, Min Humidity, Max Sea Level PressureIn, Mean Sea Level PressureIn, Min Sea Level PressureIn, Max VisibilityMiles, Mean VisibilityMiles, Min VisibilityMiles, Max Wind SpeedMPH, Mean Wind SpeedMPH, Max Gust SpeedMPH,PrecipitationIn, CloudCover, Events, WindDirDegrees
2013-10-1,84,74,64,70,65,63,100,89,53,30.14,30.06,30.01,10,5,0,8,3,,0.00,7,Fog,115
2013-10-2,84,75,66,69,66,65,97,79,51,30.15,30.10,30.05,10,10,8,12,2,,0.01,5,,116
2013-10-3,82,74,66,70,67,64,94,83,62,30.12,30.06,30.03,10,9,8,9,2,,0.00,5,,121
2013-10-4,88,76,66,73,69,66,100,88,55,30.13,30.07,30.02,10,5,0,10,2,,0.00,6,Fog,135
2013-10-5,88,78,68,72,69,66,100,85,48,30.10,30.04,29.95,10,6,0,9,2,,0.00,3,Fog,134
2013-10-6,75,69,63,72,69,57,100,93,77,29.98,29.91,29.83,10,5,0,18,4,24,1.37,7,Fog-Rain,57
2013-10-7,73,62,51,57,50,46,89,69,42,30.10,30.03,29.98,10,10,10,14,6,21,0.00,0,,342
2013-10-8,75,63,51,59,53,48,93,75,50,30.10,30.07,30.04,10,10,10,9,4,,0.01,1,,357
2013-10-9,75,65,57,66,61,57,100,87,69,30.19,30.11,30.06,10,9,0,9,3,,0.00,7,Fog,94
2013-10-10,82,70,59,65,61,57,100,91,49,30.18,30.12,30.04,10,3,0,7,0,,0.01,5,Fog,72
2013-10-11,84,72,59,66,60,55,94,78,37,30.12,30.06,30.01,10,8,3,5,1,,0.00,1,,277
2013-10-12,86,72,59,69,64,58,96,78,43,30.12,30.08,30.04,10,9,4,9,1,,0.00,1,,293
2013-10-13,84,74,64,66,64,62,97,79,47,30.23,30.16,30.12,10,8,1,7,1,,0.01,1,,356
2013-10-14,82,71,60,64,61,57,96,77,44,30.22,30.15,30.09,10,9,2,7,2,,0.00,0,,64
2013-10-15,81,70,59,65,62,58,96,78,54,30.13,30.07,30.01,10,10,10,8,3,,0.00,4,,129
2013-10-16,80,72,64,70,67,62,96,86,60,30.05,29.98,29.92,10,9,4,10,3,,0.03,7,Rain,173
2013-10-17,70,64,57,68,64,56,94,88,73,30.05,29.97,29.91,10,6,2,12,2,,0.51,8,Rain,315
2013-10-18,69,58,48,58,52,46,100,87,52,30.12,30.04,29.99,10,5,0,8,1,36,0.01,3,Fog,28
2013-10-19,73,62,52,58,55,48,100,85,55,30.10,30.00,29.94,10,6,0,13,2,17,0.05,2,Fog-Rain,311
2013-10-20,69,56,44,48,44,39,96,72,33,30.14,30.09,30.03,10,10,9,6,3,,0.00,0,,11
2013-10-21,66,54,42,57,49,39,93,81,56,30.14,30.09,30.04,10,10,10,5,1,,0.00,4,,129
2013-10-22,75,63,51,56,54,49,100,78,46,30.06,30.01,29.96,10,9,6,10,2,17,0.00,4,,308
2013-10-23,69,57,46,49,44,37,93,68,32,30.18,30.11,30.01,10,10,10,20,7,24,0.01,0,,311
2013-10-24,75,57,39,54,45,38,93,71,39,30.33,30.22,30.17,10,10,10,12,3,20,0.00,0,,281
2013-10-25,60,49,39,43,35,28,93,62,31,30.52,30.43,30.34,10,10,10,10,6,17,0.00,0,,11
2013-10-26,69,51,34,48,39,32,93,71,34,30.38,30.29,30.19,10,10,6,6,1,,0.00,0,,135
2013-10-27,69,56,44,57,51,43,96,79,47,30.20,30.16,30.11,10,10,10,8,1,,0.00,5,Rain,170
2013-10-28,72,64,57,63,59,55,100,91,70,30.26,30.21,30.14,10,5,1,7,1,,0.27,7,Rain,113
2013-10-29,78,67,57,63,59,55,100,85,50,30.31,30.26,30.22,10,7,1,7,1,,0.01,5,,146
2013-10-30,78,67,57,64,60,55,97,82,58,30.28,30.20,30.11,10,8,3,8,2,,0.01,5,,134
2013-10-31,73,70,66,67,66,64,93,86,73,30.09,29.91,29.80,10,9,2,10,6,21,0.53,7,Rain,173